createdAt,value
2023-04-05T00:00:39.583Z,101889.66
2023-04-05T00:03:10.122Z,101879.13
2023-04-05T00:05:37.431Z,101880.94
2023-04-05T00:08:08.134Z,101872.81
2023-04-05T00:10:35.946Z,101876.44
2023-04-05T00:13:03.118Z,101880.09
2023-04-05T00:15:32.008Z,101874.66
2023-04-05T00:18:00.299Z,101875.59
2023-04-05T00:20:28.904Z,101875.59
2023-04-05T00:22:56.052Z,101877.53
2023-04-05T00:25:23.221Z,101880.94
2023-04-05T00:27:50.454Z,101872.16
2023-04-05T00:30:21.054Z,101870.34
2023-04-05T00:32:49.927Z,101868.81
2023-04-05T00:35:17.550Z,101873.09
2023-04-05T00:37:44.775Z,101871.28
2023-04-05T00:40:12.022Z,101867.66
2023-04-05T00:42:39.207Z,101868.81
2023-04-05T00:45:07.010Z,101863.47
2023-04-05T00:47:34.289Z,101866.16
2023-04-05T00:50:01.605Z,101865.38
2023-04-05T00:52:30.968Z,101868.06
2023-04-05T00:54:58.576Z,101873.41
2023-04-05T00:57:26.401Z,101870.72
2023-04-05T00:59:53.587Z,101869.94
2023-04-05T01:02:32.294Z,101861.16
2023-04-05T01:05:05.107Z,101861.16
2023-04-05T01:07:42.463Z,101864.56
2023-04-05T01:10:11.849Z,101862.84
2023-04-05T01:12:39.133Z,101856.53
2023-04-05T01:15:06.815Z,101852.31
2023-04-05T01:17:39.098Z,101859.59
2023-04-05T01:20:10.549Z,101858.53
2023-04-05T01:23:11.313Z,101855.00
2023-04-05T01:25:52.954Z,101854.03
2023-04-05T01:29:08.268Z,101856.91
2023-04-05T01:31:56.236Z,101854.44
2023-04-05T01:34:25.840Z,101862.47
2023-04-05T01:36:58.190Z,101857.03
2023-04-05T01:39:25.928Z,101856.91
2023-04-05T01:41:53.489Z,101856.06
2023-04-05T01:44:20.679Z,101854.63
2023-04-05T01:46:47.920Z,101843.69
2023-04-05T01:49:15.253Z,101857.13
2023-04-05T01:51:42.728Z,101859.78
2023-04-05T01:54:10.440Z,101845.66
2023-04-05T01:56:37.703Z,101840.16
2023-04-05T01:59:05.054Z,101846.50
2023-04-05T02:01:32.362Z,101843.69
2023-04-05T02:03:59.810Z,101848.31
2023-04-05T02:06:27.371Z,101844.88
2023-04-05T02:08:54.567Z,101843.91
2023-04-05T02:11:21.851Z,101843.91
2023-04-05T02:13:49.080Z,101837.69
2023-04-05T02:16:17.308Z,101839.50
2023-04-05T02:18:50.840Z,101843.16
2023-04-05T02:21:18.212Z,101838.53
2023-04-05T02:23:45.432Z,101836.81
2023-04-05T02:26:12.658Z,101842.19
2023-04-05T02:28:39.817Z,101839.63
2023-04-05T02:31:11.850Z,101837.88
2023-04-05T02:33:39.825Z,101832.63
2023-04-05T02:36:09.361Z,101840.56
2023-04-05T02:38:36.882Z,101832.63
2023-04-05T02:41:04.075Z,101832.50
2023-04-05T02:43:31.290Z,101837.03
2023-04-05T02:45:58.471Z,101835.13
2023-04-05T02:48:25.760Z,101835.31
2023-04-05T02:50:53.205Z,101834.47
2023-04-05T02:53:21.200Z,101835.41
2023-04-05T02:55:59.749Z,101833.59
2023-04-05T02:58:27.012Z,101814.84
2023-04-05T03:00:55.154Z,101827.34
2023-04-05T03:03:23.445Z,101830.16
2023-04-05T03:06:01.618Z,101820.47
2023-04-05T03:08:30.435Z,101819.44
2023-04-05T03:10:57.621Z,101818.56
2023-04-05T03:13:24.817Z,101814.06
2023-04-05T03:15:54.974Z,101824.00
2023-04-05T03:18:22.206Z,101822.31
2023-04-05T03:20:49.983Z,101821.44
2023-04-05T03:23:17.256Z,101823.16
2023-04-05T03:25:44.570Z,101819.63
2023-04-05T03:28:12.346Z,101812.53
2023-04-05T03:30:39.615Z,101812.75
2023-04-05T03:33:07.373Z,101805.44
2023-04-05T03:35:34.611Z,101806.41
2023-04-05T03:38:01.799Z,101802.88
2023-04-05T03:40:29.036Z,101800.09
2023-04-05T03:42:56.501Z,101798.44
2023-04-05T03:45:24.497Z,101797.41
2023-04-05T03:47:52.307Z,101800.09
2023-04-05T03:50:19.596Z,101800.28
2023-04-05T03:52:46.936Z,101791.50
2023-04-05T03:55:16.788Z,101797.59
2023-04-05T03:57:43.966Z,101791.31
2023-04-05T04:00:14.755Z,101787.72
2023-04-05T04:02:47.628Z,101784.31
2023-04-05T04:05:16.447Z,101780.78
2023-04-05T04:07:44.307Z,101775.41
2023-04-05T04:10:12.756Z,101782.47
2023-04-05T04:12:39.983Z,101778.09
2023-04-05T04:15:07.791Z,101780.84
2023-04-05T04:17:36.685Z,101779.16
2023-04-05T04:20:11.366Z,101769.41
2023-04-05T04:22:40.310Z,101773.88
2023-04-05T04:25:11.788Z,101783.53
2023-04-05T04:27:41.936Z,101784.41
2023-04-05T04:30:11.455Z,101774.63
2023-04-05T04:32:52.036Z,101776.47
2023-04-05T04:35:27.919Z,101784.59
2023-04-05T04:37:59.040Z,101782.88
2023-04-05T04:40:32.473Z,101782.88
2023-04-05T04:43:00.170Z,101785.56
2023-04-05T04:45:27.430Z,101783.72
2023-04-05T04:47:54.893Z,101791.88
2023-04-05T04:50:22.286Z,101795.31
2023-04-05T04:52:49.465Z,101803.34
2023-04-05T04:55:16.643Z,101800.88
2023-04-05T04:57:44.131Z,101800.88
2023-04-05T05:00:18.207Z,101784.91
2023-04-05T05:02:45.546Z,101799.06
2023-04-05T05:05:13.014Z,101789.28
2023-04-05T05:07:44.274Z,101799.16
2023-04-05T05:10:12.659Z,101785.69
2023-04-05T05:12:39.837Z,101783.06
2023-04-05T05:15:07.613Z,101787.69
2023-04-05T05:17:35.312Z,101782.88
2023-04-05T05:20:05.843Z,101777.72
2023-04-05T05:22:33.004Z,101775.88
2023-04-05T05:25:00.180Z,101792.16
2023-04-05T05:27:28.350Z,101793.91
2023-04-05T05:29:55.754Z,101794.56
2023-04-05T05:32:23.942Z,101783.94
2023-04-05T05:34:51.125Z,101782.88
2023-04-05T05:37:18.529Z,101798.19
2023-04-05T05:39:45.847Z,101800.00
2023-04-05T05:42:13.055Z,101796.47
2023-04-05T05:44:40.268Z,101793.78
2023-04-05T05:47:07.478Z,101784.91
2023-04-05T05:49:34.676Z,101784.13
2023-04-05T05:52:01.874Z,101785.75
2023-04-05T05:54:29.095Z,101776.00
2023-04-05T05:56:56.995Z,101786.72
2023-04-05T05:59:24.357Z,101789.28
2023-04-05T06:01:52.131Z,101779.44
2023-04-05T06:04:19.538Z,101786.53
2023-04-05T06:06:47.767Z,101783.94
2023-04-05T06:09:17.286Z,101789.28
2023-04-05T06:11:55.673Z,101789.41
2023-04-05T06:14:24.527Z,101791.88
2023-04-05T06:16:51.712Z,101787.59
2023-04-05T06:19:18.894Z,101782.88
2023-04-05T06:21:46.160Z,101782.88
2023-04-05T06:24:13.614Z,101780.31
2023-04-05T06:26:41.240Z,101774.84
2023-04-05T06:29:08.497Z,101775.81
2023-04-05T06:31:36.708Z,101780.19
2023-04-05T06:34:04.098Z,101773.88
2023-04-05T06:36:32.195Z,101773.88
2023-04-05T06:38:59.704Z,101776.34
2023-04-05T06:41:30.182Z,101777.13
2023-04-05T06:43:57.362Z,101777.97
2023-04-05T06:46:24.853Z,101786.38
2023-04-05T06:48:52.724Z,101774.63
2023-04-05T06:51:20.988Z,101765.69
2023-04-05T06:53:48.231Z,101769.31
2023-04-05T06:56:15.621Z,101769.31
2023-04-05T06:58:42.875Z,101772.56
2023-04-05T07:01:10.110Z,101764.13
2023-04-05T07:03:37.444Z,101764.84
2023-04-05T07:06:04.850Z,101764.22
2023-04-05T07:08:32.970Z,101755.34
2023-04-05T07:11:00.608Z,101754.28
2023-04-05T07:13:27.812Z,101758.97
2023-04-05T07:16:01.710Z,101762.97
2023-04-05T07:18:30.086Z,101766.31
2023-04-05T07:21:01.903Z,101764.56
2023-04-05T07:23:29.655Z,101765.19
2023-04-05T07:26:04.448Z,101773.56
2023-04-05T07:28:33.129Z,101776.13
2023-04-05T07:31:00.356Z,101781.28
2023-04-05T07:33:27.795Z,101775.94
2023-04-05T07:35:56.710Z,101781.22
2023-04-05T07:38:24.037Z,101778.22
2023-04-05T07:40:51.641Z,101775.78
2023-04-05T07:43:19.702Z,101774.91
2023-04-05T07:45:47.043Z,101773.94
2023-04-05T07:48:14.243Z,101777.28
2023-04-05T07:50:42.447Z,101763.66
2023-04-05T07:53:09.919Z,101770.75
2023-04-05T07:55:39.030Z,101773.31
2023-04-05T07:58:06.233Z,101771.59
2023-04-05T08:00:33.407Z,101762.28
2023-04-05T08:03:02.156Z,101760.03
2023-04-05T08:05:29.904Z,101766.25
2023-04-05T08:07:58.278Z,101756.38
2023-04-05T08:10:26.197Z,101757.03
2023-04-05T08:12:54.241Z,101770.56
2023-04-05T08:15:21.461Z,101771.22
2023-04-05T08:17:48.774Z,101756.94
2023-04-05T08:20:16.075Z,101755.03
2023-04-05T08:22:43.346Z,101752.34
2023-04-05T08:25:10.685Z,101752.94
2023-04-05T08:27:37.886Z,101764.56
2023-04-05T08:30:06.092Z,101760.28
2023-04-05T08:32:34.021Z,101749.53
2023-04-05T08:35:01.249Z,101749.75
2023-04-05T08:37:28.506Z,101758.03
2023-04-05T08:42:36.692Z,101757.50
2023-04-05T08:45:04.958Z,101757.63
2023-04-05T08:47:32.474Z,101759.41
2023-04-05T08:49:59.810Z,101752.25
2023-04-05T08:52:27.091Z,101756.94
2023-04-05T08:54:56.115Z,101757.22
2023-04-05T08:57:27.316Z,101754.88
2023-04-05T08:59:56.351Z,101757.84
2023-04-05T09:02:24.431Z,101754.50
2023-04-05T09:04:52.198Z,101760.84
2023-04-05T09:07:21.314Z,101750.75
2023-04-05T09:09:52.893Z,101744.88
2023-04-05T09:12:22.924Z,101745.72
2023-04-05T09:14:51.342Z,101742.53
2023-04-05T09:17:19.552Z,101748.88
2023-04-05T09:19:46.740Z,101746.38
2023-04-05T09:22:18.366Z,101735.41
2023-04-05T09:24:46.988Z,101732.19
2023-04-05T09:27:15.797Z,101725.19
2023-04-05T09:29:48.013Z,101739.13
2023-04-05T09:32:16.390Z,101737.78
2023-04-05T09:34:44.117Z,101739.72
2023-04-05T09:37:16.461Z,101734.88
2023-04-05T09:39:44.238Z,101736.31
2023-04-05T09:42:14.659Z,101736.63
2023-04-05T09:44:58.198Z,101729.56
2023-04-05T09:47:31.070Z,101725.63
2023-04-05T09:50:18.459Z,101730.81
2023-04-05T09:52:45.927Z,101721.28
2023-04-05T09:55:13.830Z,101724.31
2023-04-05T09:57:43.649Z,101718.84
2023-04-05T10:00:20.553Z,101726.41
2023-04-05T10:02:52.056Z,101716.03
2023-04-05T10:05:19.506Z,101721.25
2023-04-05T10:07:46.716Z,101715.03
2023-04-05T10:10:16.178Z,101711.09
2023-04-05T10:12:45.221Z,101714.44
2023-04-05T10:15:14.414Z,101709.28
2023-04-05T10:17:49.851Z,101713.19
2023-04-05T10:20:17.992Z,101712.09
2023-04-05T10:23:01.358Z,101711.22
2023-04-05T10:25:53.158Z,101708.44
2023-04-05T10:28:43.210Z,101704.91
2023-04-05T10:31:38.183Z,101703.41
2023-04-05T10:34:06.590Z,101699.16
2023-04-05T10:36:50.162Z,101698.50
2023-04-05T10:39:46.786Z,101709.22
2023-04-05T10:42:28.169Z,101698.16
2023-04-05T10:45:06.346Z,101694.69
2023-04-05T10:47:39.173Z,101690.63
2023-04-05T10:50:09.561Z,101692.34
2023-04-05T10:52:37.942Z,101691.91
2023-04-05T10:55:05.592Z,101688.47
2023-04-05T10:57:33.465Z,101687.63
2023-04-05T11:00:01.044Z,101692.13
2023-04-05T11:02:29.835Z,101691.28
2023-04-05T11:04:57.521Z,101682.38
2023-04-05T11:07:24.976Z,101688.19
2023-04-05T11:10:18.309Z,101681.22
2023-04-05T11:13:00.585Z,101678.78
2023-04-05T11:15:27.753Z,101684.25
2023-04-05T11:18:26.289Z,101673.06
2023-04-05T11:21:05.612Z,101677.91
2023-04-05T11:23:32.877Z,101679.09
2023-04-05T11:26:07.287Z,101669.06
2023-04-05T11:28:42.051Z,101679.09
2023-04-05T11:31:18.182Z,101684.44
2023-04-05T11:33:55.824Z,101679.81
2023-04-05T11:36:38.348Z,101675.84
2023-04-05T11:39:23.710Z,101674.44
2023-04-05T11:41:58.010Z,101671.13
2023-04-05T11:44:25.835Z,101668.09
2023-04-05T11:46:54.172Z,101669.72
2023-04-05T11:49:25.440Z,101677.97
2023-04-05T11:51:53.851Z,101666.38
2023-04-05T11:54:33.931Z,101666.19
2023-04-05T11:57:02.178Z,101660.72
2023-04-05T11:59:34.111Z,101656.38
2023-04-05T12:02:07.961Z,101658.63
2023-04-05T12:04:38.763Z,101659.31
2023-04-05T12:07:13.404Z,101655.19
2023-04-05T12:10:16.137Z,101654.56
2023-04-05T12:12:45.024Z,101658.09
2023-04-05T12:15:15.187Z,101655.91
2023-04-05T12:17:47.402Z,101661.75
2023-04-05T12:20:25.212Z,101655.19
2023-04-05T12:22:54.173Z,101656.69
2023-04-05T12:25:22.238Z,101654.22
2023-04-05T12:27:49.737Z,101657.88
2023-04-05T12:30:21.767Z,101648.38
2023-04-05T12:32:56.355Z,101641.41
2023-04-05T12:35:32.211Z,101634.81
2023-04-05T12:38:00.924Z,101635.78
2023-04-05T12:40:30.434Z,101629.81
2023-04-05T12:43:08.293Z,101629.03
2023-04-05T12:45:43.700Z,101630.78
2023-04-05T12:48:30.420Z,101629.59
2023-04-05T12:50:57.616Z,101633.78
2023-04-05T12:53:28.577Z,101629.81
2023-04-05T12:55:57.368Z,101624.31
2023-04-05T12:58:45.244Z,101620.47
2023-04-05T13:01:13.484Z,101616.38
2023-04-05T13:03:45.953Z,101621.75
2023-04-05T13:06:14.086Z,101623.69
2023-04-05T13:08:41.622Z,101613.38
2023-04-05T13:11:09.286Z,101613.38
2023-04-05T13:13:36.792Z,101619.16
2023-04-05T13:16:04.072Z,101618.97
2023-04-05T13:18:31.521Z,101613.38
2023-04-05T13:21:00.598Z,101617.78
2023-04-05T13:23:27.743Z,101615.13
2023-04-05T13:25:55.265Z,101617.88
2023-04-05T13:28:22.673Z,101612.44
2023-04-05T13:30:51.252Z,101613.91
2023-04-05T13:33:19.789Z,101612.09
2023-04-05T13:35:47.248Z,101613.78
2023-04-05T13:38:14.591Z,101602.22
2023-04-05T13:40:42.540Z,101592.31
2023-04-05T13:43:09.700Z,101595.91
2023-04-05T13:45:39.445Z,101600.50
2023-04-05T13:48:07.318Z,101597.81
2023-04-05T13:50:36.465Z,101598.59
2023-04-05T13:53:03.813Z,101599.53
2023-04-05T13:55:32.098Z,101592.09
2023-04-05T13:57:59.241Z,101590.41
2023-04-05T14:00:26.799Z,101587.38
2023-04-05T14:02:54.206Z,101585.44
2023-04-05T14:05:21.471Z,101583.00
2023-04-05T14:07:50.265Z,101583.97
2023-04-05T14:10:19.591Z,101572.25
2023-04-05T14:12:46.776Z,101575.47
2023-04-05T14:15:14.033Z,101572.78
2023-04-05T14:17:41.317Z,101570.09
2023-04-05T14:20:08.993Z,101565.69
2023-04-05T14:22:36.292Z,101559.16
2023-04-05T14:25:04.418Z,101563.09
2023-04-05T14:27:31.856Z,101562.84
2023-04-05T14:29:59.078Z,101560.94
2023-04-05T14:32:26.440Z,101559.00
2023-04-05T14:34:53.931Z,101560.50
2023-04-05T14:37:21.382Z,101555.38
2023-04-05T14:39:48.834Z,101550.25
2023-04-05T14:42:16.332Z,101550.47
2023-04-05T14:44:43.656Z,101554.69
2023-04-05T14:47:10.963Z,101545.50
2023-04-05T14:49:38.367Z,101548.72
2023-04-05T14:52:06.048Z,101548.59
2023-04-05T14:54:33.325Z,101549.97
2023-04-05T14:57:00.940Z,101546.94
2023-04-05T14:59:28.319Z,101546.84
2023-04-05T15:01:55.539Z,101548.44
2023-04-05T15:04:22.982Z,101550.13
2023-04-05T15:06:50.288Z,101542.19
2023-04-05T15:09:17.806Z,101540.25
2023-04-05T15:11:45.214Z,101542.84
2023-04-05T15:14:24.526Z,101537.75
2023-04-05T15:16:56.118Z,101541.47
2023-04-05T15:19:23.328Z,101535.81
2023-04-05T15:21:50.535Z,101527.25
2023-04-05T15:24:17.914Z,101530.09
2023-04-05T15:26:45.414Z,101532.84
2023-04-05T15:29:12.772Z,101529.00
2023-04-05T15:31:41.328Z,101530.06
2023-04-05T15:34:08.679Z,101528.59
2023-04-05T15:36:36.204Z,101530.59
2023-04-05T15:39:04.989Z,101533.94
2023-04-05T15:41:33.277Z,101529.03
2023-04-05T15:44:00.918Z,101526.34
2023-04-05T15:46:29.199Z,101529.66
2023-04-05T15:48:56.496Z,101532.44
2023-04-05T15:51:24.003Z,101530.72
2023-04-05T15:53:51.787Z,101527.91
2023-04-05T15:56:19.286Z,101533.41
2023-04-05T15:58:46.474Z,101535.88
2023-04-05T16:01:14.170Z,101533.41
2023-04-05T16:03:42.033Z,101534.38
2023-04-05T16:06:09.733Z,101530.75
2023-04-05T16:08:37.024Z,101531.31
2023-04-05T16:11:04.343Z,101525.19
2023-04-05T16:13:31.525Z,101529.69
2023-04-05T16:15:58.826Z,101534.50
2023-04-05T16:18:28.054Z,101531.16
2023-04-05T16:20:56.067Z,101528.41
2023-04-05T16:23:23.433Z,101526.69
2023-04-05T16:25:50.645Z,101526.44
2023-04-05T16:28:18.108Z,101526.88
2023-04-05T16:30:47.454Z,101521.72
2023-04-05T16:33:15.447Z,101527.00
2023-04-05T16:35:42.731Z,101525.38
2023-04-05T16:38:09.953Z,101526.34
2023-04-05T16:40:37.420Z,101524.97
2023-04-05T16:43:04.949Z,101521.00
2023-04-05T16:45:33.765Z,101517.25
2023-04-05T16:48:01.076Z,101518.72
2023-04-05T16:50:28.517Z,101517.28
2023-04-05T16:52:56.031Z,101519.91
2023-04-05T16:55:23.513Z,101507.19
2023-04-05T16:57:51.237Z,101510.75
2023-04-05T17:00:18.960Z,101505.16
2023-04-05T17:02:46.558Z,101515.81
2023-04-05T17:05:13.831Z,101513.44
2023-04-05T17:07:41.522Z,101519.84
2023-04-05T17:10:09.414Z,101513.47
2023-04-05T17:12:37.368Z,101518.28
2023-04-05T17:15:04.806Z,101517.09
2023-04-05T17:17:32.095Z,101519.56
2023-04-05T17:19:59.308Z,101520.59
2023-04-05T17:22:26.776Z,101517.06
2023-04-05T17:24:54.203Z,101522.88
2023-04-05T17:27:21.417Z,101524.47
2023-04-05T17:29:49.410Z,101522.28
2023-04-05T17:32:16.700Z,101527.56
2023-04-05T17:34:44.093Z,101519.84
2023-04-05T17:37:11.508Z,101528.72
2023-04-05T17:39:38.846Z,101527.03
2023-04-05T17:42:06.073Z,101533.81
2023-04-05T17:44:33.563Z,101530.06
2023-04-05T17:47:08.430Z,101534.13
2023-04-05T17:49:37.597Z,101526.22
2023-04-05T17:52:08.430Z,101526.53
2023-04-05T17:54:39.227Z,101535.00
2023-04-05T17:57:07.313Z,101522.53
2023-04-05T17:59:36.049Z,101532.75
2023-04-05T18:02:03.530Z,101541.44
2023-04-05T18:04:30.991Z,101531.91
2023-04-05T18:06:58.417Z,101541.66
2023-04-05T18:09:26.646Z,101540.81
2023-04-05T18:11:54.026Z,101540.59
2023-04-05T18:14:21.602Z,101547.13
2023-04-05T18:16:48.961Z,101550.78
2023-04-05T18:19:17.568Z,101545.41
2023-04-05T18:21:45.449Z,101550.69
2023-04-05T18:24:13.628Z,101551.97
2023-04-05T18:26:41.597Z,101552.84
2023-04-05T18:29:09.334Z,101549.50
2023-04-05T18:31:37.106Z,101550.50
2023-04-05T18:34:07.420Z,101553.81
2023-04-05T18:36:39.606Z,101551.97
2023-04-05T18:39:07.406Z,101552.00
2023-04-05T18:41:35.045Z,101557.38
2023-04-05T18:44:02.315Z,101555.84
2023-04-05T18:46:30.071Z,101554.88
2023-04-05T18:48:57.962Z,101554.13
2023-04-05T18:51:27.245Z,101556.94
2023-04-05T18:53:54.642Z,101554.34
2023-04-05T18:56:21.960Z,101558.84
2023-04-05T18:58:52.518Z,101567.03
2023-04-05T19:01:20.159Z,101560.56
2023-04-05T19:03:48.827Z,101557.03
2023-04-05T19:06:16.817Z,101566.81
2023-04-05T19:08:44.449Z,101564.84
2023-04-05T19:11:13.891Z,101564.84
2023-04-05T19:13:42.218Z,101563.25
2023-04-05T19:16:10.009Z,101562.72
2023-04-05T19:18:37.639Z,101570.44
2023-04-05T19:21:05.234Z,101569.50
2023-04-05T19:23:32.717Z,101571.19
2023-04-05T19:25:59.994Z,101569.59
2023-04-05T19:28:27.535Z,101565.28
2023-04-05T19:30:55.182Z,101565.28
2023-04-05T19:33:22.490Z,101565.28
2023-04-05T19:35:50.024Z,101567.88
2023-04-05T19:38:17.432Z,101568.72
2023-04-05T19:40:44.764Z,101567.97
2023-04-05T19:43:13.155Z,101561.97
2023-04-05T19:45:40.404Z,101565.50
2023-04-05T19:48:32.124Z,101563.72
2023-04-05T19:51:01.894Z,101562.09
2023-04-05T19:53:42.903Z,101560.47
2023-04-05T19:56:18.397Z,101569.06
2023-04-05T19:58:47.725Z,101566.59
2023-04-05T20:01:31.358Z,101560.34
2023-04-05T20:03:59.032Z,101557.78
2023-04-05T20:06:27.261Z,101556.81
2023-04-05T20:09:04.823Z,101559.72
2023-04-05T20:11:32.934Z,101563.16
2023-04-05T20:14:02.106Z,101560.59
2023-04-05T20:16:32.376Z,101559.94
2023-04-05T20:19:02.295Z,101561.97
2023-04-05T20:21:29.753Z,101557.59
2023-04-05T20:23:57.127Z,101552.88
2023-04-05T20:26:31.891Z,101558.34
2023-04-05T20:29:04.040Z,101552.00
2023-04-05T20:31:38.863Z,101553.00
2023-04-05T20:34:13.962Z,101553.94
2023-04-05T20:36:49.292Z,101555.53
2023-04-05T20:39:17.063Z,101547.63
2023-04-05T20:41:45.542Z,101543.00
2023-04-05T20:44:12.796Z,101552.44
2023-04-05T20:46:39.995Z,101552.09
2023-04-05T20:49:07.551Z,101537.75
2023-04-05T20:51:35.228Z,101540.94
2023-04-05T20:54:02.522Z,101540.09
2023-04-05T20:56:29.802Z,101541.94
2023-04-05T20:58:57.109Z,101537.41
2023-04-05T21:01:24.525Z,101533.78
2023-04-05T21:03:53.475Z,101536.03
2023-04-05T21:06:21.123Z,101546.09
2023-04-05T21:08:48.373Z,101535.38
2023-04-05T21:11:15.828Z,101542.47
2023-04-05T21:13:43.483Z,101535.94
2023-04-05T21:16:11.222Z,101530.13
2023-04-05T21:18:38.542Z,101544.06
2023-04-05T21:21:05.925Z,101536.22
2023-04-05T21:23:34.397Z,101536.34
2023-04-05T21:26:02.273Z,101543.84
2023-04-05T21:28:29.575Z,101540.94
2023-04-05T21:30:57.037Z,101536.78
2023-04-05T21:33:24.293Z,101540.44
2023-04-05T21:35:51.736Z,101543.13
2023-04-05T21:38:19.129Z,101543.44
2023-04-05T21:40:46.344Z,101542.56
2023-04-05T21:43:13.728Z,101537.59
2023-04-05T21:45:41.232Z,101538.56
2023-04-05T21:48:08.422Z,101539.66
2023-04-05T21:50:37.090Z,101545.78
2023-04-05T21:53:05.437Z,101540.63
2023-04-05T21:55:32.742Z,101538.78
2023-04-05T21:57:59.911Z,101542.25
2023-04-05T22:00:27.615Z,101533.44
2023-04-05T22:02:54.828Z,101539.75
2023-04-05T22:05:33.962Z,101533.56
2023-04-05T22:08:05.985Z,101533.75
2023-04-05T22:10:33.733Z,101530.97
2023-04-05T22:13:00.927Z,101532.88
2023-04-05T22:15:28.114Z,101539.13
2023-04-05T22:17:55.340Z,101531.72
2023-04-05T22:20:22.552Z,101533.97
2023-04-05T22:22:49.840Z,101527.00
2023-04-05T22:25:17.174Z,101532.44
2023-04-05T22:27:44.554Z,101529.88
2023-04-05T22:30:12.232Z,101527.09
2023-04-05T22:32:39.418Z,101529.88
2023-04-05T22:35:06.991Z,101526.78
2023-04-05T22:37:36.510Z,101537.28
2023-04-05T22:40:04.533Z,101539.63
2023-04-05T22:42:31.850Z,101531.84
2023-04-05T22:44:59.386Z,101535.97
2023-04-05T22:47:27.185Z,101539.41
2023-04-05T22:49:54.597Z,101541.38
2023-04-05T22:52:22.026Z,101534.06
2023-04-05T22:54:49.228Z,101532.22
2023-04-05T22:57:16.467Z,101535.31
2023-04-05T22:59:43.839Z,101536.31
2023-04-05T23:02:12.384Z,101540.56
2023-04-05T23:04:39.721Z,101536.03
2023-04-05T23:07:07.035Z,101531.47
2023-04-05T23:09:34.282Z,101531.25
2023-04-05T23:12:01.591Z,101529.84
2023-04-05T23:14:28.754Z,101527.44
2023-04-05T23:16:56.443Z,101534.75
2023-04-05T23:19:23.705Z,101535.94
2023-04-05T23:21:50.981Z,101532.38
2023-04-05T23:24:18.192Z,101534.19
2023-04-05T23:26:45.537Z,101534.19
2023-04-05T23:29:12.727Z,101533.25
2023-04-05T23:31:39.906Z,101536.00
2023-04-05T23:34:07.202Z,101526.16
2023-04-05T23:36:34.367Z,101528.09
2023-04-05T23:39:01.573Z,101529.03
2023-04-05T23:41:28.860Z,101528.31
2023-04-05T23:43:56.199Z,101522.38
2023-04-05T23:46:23.792Z,101519.13
2023-04-05T23:48:51.064Z,101522.97
2023-04-05T23:51:18.224Z,101521.69
2023-04-05T23:53:45.454Z,101527.75
2023-04-05T23:56:12.654Z,101521.34
2023-04-05T23:58:42.288Z,101525.31
